createdAt,value
2023-01-13T00:00:25.170Z,0.32
2023-01-13T00:02:51.293Z,0.28
2023-01-13T00:05:17.435Z,0.28
2023-01-13T00:07:43.611Z,0.50
2023-01-13T00:10:09.771Z,0.38
2023-01-13T00:12:35.906Z,0.57
2023-01-13T00:15:02.057Z,0.40
2023-01-13T00:17:28.185Z,0.30
2023-01-13T00:19:54.293Z,0.30
2023-01-13T00:22:20.561Z,0.30
2023-01-13T00:24:46.780Z,0.47
2023-01-13T00:27:12.915Z,0.25
2023-01-13T00:29:39.083Z,0.30
2023-01-13T00:32:05.220Z,0.40
2023-01-13T00:34:31.338Z,0.20
2023-01-13T00:36:57.476Z,0.20
2023-01-13T00:39:23.581Z,0.30
2023-01-13T00:41:49.722Z,0.30
2023-01-13T00:44:15.841Z,0.40
2023-01-13T00:46:42.003Z,0.40
2023-01-13T00:49:08.328Z,0.47
2023-01-13T00:51:34.495Z,0.40
2023-01-13T00:54:00.618Z,0.32
2023-01-13T00:56:39.632Z,0.30
2023-01-13T00:59:06.595Z,0.32
2023-01-13T01:01:33.115Z,0.55
2023-01-13T01:03:59.380Z,0.15
2023-01-13T01:06:25.515Z,0.30
2023-01-13T01:08:51.692Z,0.40
2023-01-13T01:11:17.904Z,0.30
2023-01-13T01:13:44.054Z,0.20
2023-01-13T01:16:10.271Z,0.40
2023-01-13T01:18:36.392Z,0.20
2023-01-13T01:21:02.545Z,0.30
2023-01-13T01:23:28.641Z,0.45
2023-01-13T01:25:54.786Z,0.25
2023-01-13T01:28:20.875Z,0.20
2023-01-13T01:30:47.047Z,0.20
2023-01-13T01:33:13.165Z,0.30
2023-01-13T01:35:39.335Z,0.30
2023-01-13T01:38:05.461Z,0.20
2023-01-13T01:40:31.625Z,0.60
2023-01-13T01:42:57.793Z,0.22
2023-01-13T01:45:24.007Z,0.25
2023-01-13T01:47:50.171Z,0.20
2023-01-13T01:50:16.371Z,0.30
2023-01-13T01:52:42.500Z,0.30
2023-01-13T01:55:08.611Z,0.20
2023-01-13T01:57:34.833Z,0.40
2023-01-13T02:00:01.004Z,0.20
2023-01-13T02:02:27.236Z,0.20
2023-01-13T02:04:53.376Z,0.20
2023-01-13T02:07:19.559Z,0.30
2023-01-13T02:09:45.686Z,0.20
2023-01-13T02:12:11.797Z,0.30
2023-01-13T02:14:37.948Z,0.32
2023-01-13T02:17:04.082Z,0.20
2023-01-13T02:19:30.227Z,0.20
2023-01-13T02:21:56.400Z,0.30
2023-01-13T02:24:22.525Z,0.20
2023-01-13T02:26:48.652Z,0.20
2023-01-13T02:29:14.791Z,0.28
2023-01-13T02:31:41.007Z,0.20
2023-01-13T02:34:07.111Z,0.30
2023-01-13T02:36:33.209Z,0.10
2023-01-13T02:38:59.398Z,0.20
2023-01-13T02:41:25.598Z,0.28
2023-01-13T02:43:51.728Z,0.20
2023-01-13T02:46:17.833Z,0.22
2023-01-13T02:48:43.957Z,0.20
2023-01-13T02:51:10.163Z,0.28
2023-01-13T02:53:36.339Z,0.20
2023-01-13T02:56:02.463Z,0.30
2023-01-13T02:58:33.486Z,0.10
2023-01-13T03:03:48.143Z,0.30
2023-01-13T03:06:15.178Z,0.17
2023-01-13T03:08:41.566Z,0.20
2023-01-13T03:11:09.767Z,0.90
2023-01-13T03:13:36.531Z,0.20
2023-01-13T03:16:03.607Z,0.15
2023-01-13T03:18:30.913Z,0.20
2023-01-13T03:20:58.638Z,0.28
2023-01-13T03:23:25.370Z,0.20
2023-01-13T03:25:51.822Z,0.20
2023-01-13T03:28:19.369Z,0.20
2023-01-13T03:30:46.249Z,0.13
2023-01-13T03:33:12.605Z,0.25
2023-01-13T03:35:39.235Z,0.13
2023-01-13T03:38:06.141Z,0.20
2023-01-13T03:40:32.672Z,0.22
2023-01-13T03:42:59.151Z,0.40
2023-01-13T03:45:25.328Z,0.17
2023-01-13T03:47:51.648Z,0.20
2023-01-13T03:50:17.941Z,0.10
2023-01-13T03:52:44.212Z,0.20
2023-01-13T03:55:10.602Z,0.20
2023-01-13T03:57:36.892Z,0.20
2023-01-13T04:00:03.240Z,0.30
2023-01-13T04:02:29.480Z,0.20
2023-01-13T04:04:55.966Z,0.10
2023-01-13T04:07:22.239Z,0.15
2023-01-13T04:09:48.982Z,0.28
2023-01-13T04:12:15.243Z,0.30
2023-01-13T04:14:41.596Z,0.10
2023-01-13T04:17:07.871Z,0.20
2023-01-13T04:19:34.221Z,0.17
2023-01-13T04:22:00.541Z,0.13
2023-01-13T04:24:27.253Z,0.20
2023-01-13T04:26:53.633Z,0.35
2023-01-13T04:29:20.259Z,0.20
2023-01-13T04:31:46.689Z,0.15
2023-01-13T04:34:12.925Z,0.17
2023-01-13T04:36:39.662Z,0.20
2023-01-13T04:39:06.072Z,0.25
2023-01-13T04:41:32.349Z,0.20
2023-01-13T04:43:58.542Z,0.20
2023-01-13T04:46:24.851Z,0.20
2023-01-13T04:48:51.271Z,0.10
2023-01-13T04:51:17.504Z,0.30
2023-01-13T04:53:43.722Z,0.30
2023-01-13T04:56:10.123Z,0.30
2023-01-13T04:58:36.421Z,0.30
2023-01-13T05:01:03.053Z,0.20
2023-01-13T05:03:29.927Z,0.30
2023-01-13T05:05:56.703Z,0.30
2023-01-13T05:08:23.406Z,0.20
2023-01-13T05:10:49.728Z,0.20
2023-01-13T05:13:16.929Z,0.63
2023-01-13T05:15:43.345Z,0.10
2023-01-13T05:18:09.990Z,0.10
2023-01-13T05:20:36.504Z,0.20
2023-01-13T05:23:03.308Z,0.25
2023-01-13T05:25:29.867Z,0.20
2023-01-13T05:27:56.488Z,0.10
2023-01-13T05:30:22.923Z,0.20
2023-01-13T05:32:49.918Z,0.20
2023-01-13T05:35:16.121Z,0.40
2023-01-13T05:37:42.877Z,0.20
2023-01-13T05:40:09.415Z,0.10
2023-01-13T05:42:35.882Z,0.38
2023-01-13T05:45:02.397Z,0.20
2023-01-13T05:47:28.996Z,0.20
2023-01-13T05:49:56.888Z,0.10
2023-01-13T05:52:23.728Z,0.20
2023-01-13T05:54:50.016Z,0.30
2023-01-13T05:57:16.511Z,0.50
2023-01-13T05:59:43.163Z,0.10
2023-01-13T06:02:09.639Z,0.20
2023-01-13T06:04:36.091Z,0.10
2023-01-13T06:07:03.613Z,0.30
2023-01-13T06:09:30.917Z,0.10
2023-01-13T06:11:59.771Z,0.20
2023-01-13T06:14:27.036Z,0.30
2023-01-13T06:17:04.042Z,0.20
2023-01-13T06:19:30.524Z,0.20
2023-01-13T06:21:56.853Z,0.38
2023-01-13T06:24:25.485Z,0.28
2023-01-13T06:26:51.733Z,0.20
2023-01-13T06:29:18.917Z,0.40
2023-01-13T06:31:45.373Z,0.20
2023-01-13T06:34:11.569Z,0.25
2023-01-13T06:36:37.821Z,0.20
2023-01-13T06:39:04.058Z,0.20
2023-01-13T06:41:30.179Z,0.20
2023-01-13T06:43:56.351Z,0.30
2023-01-13T06:46:22.620Z,0.22
2023-01-13T06:48:48.743Z,0.30
2023-01-13T06:51:14.999Z,0.22
2023-01-13T06:53:41.118Z,0.20
2023-01-13T06:56:07.264Z,0.10
2023-01-13T06:58:33.392Z,0.30
2023-01-13T07:00:59.651Z,0.20
2023-01-13T07:03:25.815Z,0.30
2023-01-13T07:05:51.984Z,0.10
2023-01-13T07:08:18.109Z,0.20
2023-01-13T07:10:44.256Z,0.30
2023-01-13T07:13:10.459Z,0.20
2023-01-13T07:15:36.613Z,0.20
2023-01-13T07:18:02.742Z,0.25
2023-01-13T07:20:28.885Z,0.35
2023-01-13T07:22:55.041Z,0.20
2023-01-13T07:25:21.257Z,0.40
2023-01-13T07:27:47.390Z,0.30
2023-01-13T07:30:13.548Z,0.20
2023-01-13T07:32:39.679Z,0.40
2023-01-13T07:35:05.794Z,0.40
2023-01-13T07:37:31.967Z,0.20
2023-01-13T07:39:58.099Z,0.20
2023-01-13T07:42:24.242Z,0.40
2023-01-13T07:44:50.388Z,0.25
2023-01-13T07:47:16.529Z,0.28
2023-01-13T07:49:42.766Z,0.30
2023-01-13T07:52:08.961Z,0.30
2023-01-13T07:54:40.570Z,0.30
2023-01-13T07:57:07.324Z,0.30
2023-01-13T07:59:33.440Z,0.20
2023-01-13T08:01:59.825Z,0.30
2023-01-13T08:04:26.041Z,0.20
2023-01-13T08:06:52.145Z,0.40
2023-01-13T08:09:18.280Z,0.30
2023-01-13T08:11:44.395Z,0.40
2023-01-13T08:14:10.524Z,0.20
2023-01-13T08:16:36.728Z,0.40
2023-01-13T08:19:02.894Z,0.30
2023-01-13T08:21:29.033Z,0.38
2023-01-13T08:23:55.193Z,0.20
2023-01-13T08:26:21.305Z,0.20
2023-01-13T08:28:47.444Z,0.57
2023-01-13T08:31:13.610Z,0.30
2023-01-13T08:33:39.844Z,0.30
2023-01-13T08:36:05.953Z,0.20
2023-01-13T08:38:32.103Z,0.28
2023-01-13T08:40:58.228Z,0.28
2023-01-13T08:43:24.382Z,0.40
2023-01-13T08:45:50.546Z,0.28
2023-01-13T08:48:16.684Z,0.32
2023-01-13T08:50:42.832Z,0.20
2023-01-13T08:53:08.956Z,0.25
2023-01-13T08:55:35.100Z,0.10
2023-01-13T09:00:36.235Z,0.20
2023-01-13T09:03:02.391Z,0.20
2023-01-13T09:05:28.533Z,0.15
2023-01-13T09:07:54.675Z,0.30
2023-01-13T09:10:20.911Z,0.20
2023-01-13T09:12:47.201Z,0.20
2023-01-13T09:15:13.334Z,0.20
2023-01-13T09:17:39.523Z,0.30
2023-01-13T09:20:05.801Z,0.22
2023-01-13T09:22:32.023Z,0.10
2023-01-13T09:24:58.244Z,0.25
2023-01-13T09:27:24.363Z,0.20
2023-01-13T09:29:50.558Z,0.20
2023-01-13T09:32:16.772Z,0.20
2023-01-13T09:34:42.965Z,0.30
2023-01-13T09:37:09.115Z,0.28
2023-01-13T09:39:35.374Z,0.10
2023-01-13T09:42:01.515Z,0.10
2023-01-13T09:44:27.682Z,0.20
2023-01-13T09:46:53.818Z,0.30
2023-01-13T09:49:19.946Z,0.28
2023-01-13T09:51:46.118Z,0.20
2023-01-13T09:54:12.351Z,0.20
2023-01-13T09:56:38.515Z,0.20
2023-01-13T09:59:04.656Z,0.22
2023-01-13T10:01:30.853Z,0.10
2023-01-13T10:03:57.113Z,0.10
2023-01-13T10:06:23.247Z,0.30
2023-01-13T10:08:49.404Z,0.20
2023-01-13T10:11:15.560Z,0.20
2023-01-13T10:13:41.730Z,0.17
2023-01-13T10:16:07.963Z,0.20
2023-01-13T10:18:34.106Z,0.20
2023-01-13T10:21:00.274Z,0.10
2023-01-13T10:23:26.391Z,0.40
2023-01-13T10:25:52.576Z,0.22
2023-01-13T10:28:19.430Z,0.20
2023-01-13T10:30:45.797Z,0.20
2023-01-13T10:33:12.007Z,0.30
2023-01-13T10:35:38.311Z,0.20
2023-01-13T10:38:04.460Z,0.35
2023-01-13T10:40:30.679Z,0.10
2023-01-13T10:42:56.859Z,0.10
2023-01-13T10:45:23.002Z,0.15
2023-01-13T10:47:49.152Z,0.28
2023-01-13T10:50:15.290Z,0.15
2023-01-13T10:52:41.505Z,0.13
2023-01-13T10:55:07.658Z,0.30
2023-01-13T10:57:33.839Z,0.10
2023-01-13T11:00:00.008Z,0.10
2023-01-13T11:02:26.996Z,0.10
2023-01-13T11:04:53.509Z,0.20
2023-01-13T11:07:19.676Z,0.10
2023-01-13T11:09:45.840Z,0.20
2023-01-13T11:12:11.962Z,0.10
2023-01-13T11:14:38.226Z,0.13
2023-01-13T11:17:04.477Z,0.10
2023-01-13T11:19:30.760Z,0.20
2023-01-13T11:21:57.035Z,0.20
2023-01-13T11:24:23.209Z,0.28
2023-01-13T11:26:49.359Z,0.20
2023-01-13T11:29:15.532Z,0.17
2023-01-13T11:31:41.749Z,0.10
2023-01-13T11:34:07.949Z,0.10
2023-01-13T11:36:34.085Z,0.30
2023-01-13T11:39:00.223Z,0.10
2023-01-13T11:41:26.373Z,0.20
2023-01-13T11:43:52.558Z,0.20
2023-01-13T11:46:18.748Z,0.30
2023-01-13T11:48:45.107Z,0.20
2023-01-13T11:51:11.264Z,0.20
2023-01-13T11:53:37.392Z,0.17
2023-01-13T11:56:03.549Z,0.28
2023-01-13T11:58:31.763Z,0.20
2023-01-13T12:00:58.108Z,0.20
2023-01-13T12:03:24.315Z,0.70
2023-01-13T12:05:50.484Z,0.17
2023-01-13T12:08:16.598Z,0.20
2023-01-13T12:10:42.762Z,0.15
2023-01-13T12:13:08.878Z,0.10
2023-01-13T12:15:35.028Z,0.20
2023-01-13T12:18:01.172Z,0.30
2023-01-13T12:20:27.470Z,0.30
2023-01-13T12:22:53.582Z,0.25
2023-01-13T12:25:19.813Z,0.10
2023-01-13T12:27:47.489Z,0.20
2023-01-13T12:30:13.900Z,0.40
2023-01-13T12:32:40.092Z,0.15
2023-01-13T12:35:06.213Z,0.15
2023-01-13T12:37:32.425Z,0.20
2023-01-13T12:39:58.588Z,0.10
2023-01-13T12:42:24.739Z,0.30
2023-01-13T12:44:50.866Z,0.40
2023-01-13T12:47:17.011Z,0.30
2023-01-13T12:49:43.140Z,0.30
2023-01-13T12:52:09.393Z,0.20
2023-01-13T12:54:35.498Z,0.30
2023-01-13T12:57:01.632Z,0.25
2023-01-13T12:59:27.754Z,0.20
2023-01-13T13:01:54.094Z,0.30
2023-01-13T13:04:20.286Z,0.30
2023-01-13T13:06:46.397Z,0.20
2023-01-13T13:09:12.559Z,0.40
2023-01-13T13:11:38.693Z,0.30
2023-01-13T13:14:04.893Z,0.40
2023-01-13T13:16:31.084Z,0.17
2023-01-13T13:18:57.245Z,0.30
2023-01-13T13:21:23.385Z,0.20
2023-01-13T13:23:49.537Z,0.20
2023-01-13T13:26:15.667Z,0.40
2023-01-13T13:28:41.793Z,0.40
2023-01-13T13:31:07.937Z,0.22
2023-01-13T13:33:34.111Z,0.30
2023-01-13T13:36:00.262Z,0.20
2023-01-13T13:38:26.378Z,0.22
2023-01-13T13:40:52.512Z,0.40
2023-01-13T13:43:18.625Z,0.10
2023-01-13T13:45:44.942Z,0.22
2023-01-13T13:48:11.215Z,0.22
2023-01-13T13:50:37.383Z,0.20
2023-01-13T13:53:03.514Z,0.20
2023-01-13T13:55:29.667Z,0.30
2023-01-13T13:57:55.796Z,0.13
2023-01-13T14:00:22.137Z,0.22
2023-01-13T14:02:48.429Z,0.20
2023-01-13T14:05:14.582Z,0.10
2023-01-13T14:07:40.733Z,0.10
2023-01-13T14:10:06.798Z,0.30
2023-01-13T14:12:32.936Z,0.55
2023-01-13T14:14:59.045Z,0.20
2023-01-13T14:17:25.177Z,0.20
2023-01-13T14:19:51.373Z,0.20
2023-01-13T14:22:17.520Z,0.13
2023-01-13T14:24:43.640Z,0.10
2023-01-13T14:27:09.778Z,0.20
2023-01-13T14:29:35.891Z,0.13
2023-01-13T14:32:02.044Z,0.10
2023-01-13T14:34:31.874Z,0.10
2023-01-13T14:36:59.146Z,0.30
2023-01-13T14:39:25.269Z,0.20
2023-01-13T14:41:51.464Z,0.20
2023-01-13T14:44:17.607Z,0.30
2023-01-13T14:46:43.734Z,0.30
2023-01-13T14:49:09.908Z,0.40
2023-01-13T14:51:36.000Z,0.40
2023-01-13T14:54:02.143Z,0.30
2023-01-13T14:56:30.533Z,0.30
2023-01-13T14:58:57.335Z,0.30
2023-01-13T15:01:23.723Z,0.20
2023-01-13T15:03:49.920Z,0.52
2023-01-13T15:06:16.033Z,0.20
2023-01-13T15:08:42.213Z,0.30
2023-01-13T15:11:08.346Z,0.40
2023-01-13T15:13:34.499Z,1.13
2023-01-13T15:16:00.718Z,0.30
2023-01-13T15:18:26.884Z,0.30
2023-01-13T15:20:53.006Z,0.30
2023-01-13T15:23:19.201Z,0.40
2023-01-13T15:25:45.405Z,0.30
2023-01-13T15:28:11.512Z,0.30
2023-01-13T15:30:37.665Z,0.50
2023-01-13T15:33:03.791Z,0.40
2023-01-13T15:35:29.915Z,0.55
2023-01-13T15:37:56.039Z,0.40
2023-01-13T15:40:22.219Z,0.70
2023-01-13T15:42:48.326Z,0.50
2023-01-13T15:45:14.453Z,0.43
2023-01-13T15:47:40.608Z,0.40
2023-01-13T15:50:06.715Z,0.63
2023-01-13T15:52:32.855Z,0.55
2023-01-13T15:54:58.991Z,0.90
2023-01-13T15:57:25.188Z,0.40
2023-01-13T15:59:51.291Z,0.65
2023-01-13T16:02:17.421Z,0.60
2023-01-13T16:04:43.598Z,0.40
2023-01-13T16:07:09.770Z,0.50
2023-01-13T16:09:35.887Z,0.63
2023-01-13T16:12:02.036Z,0.43
2023-01-13T16:14:28.152Z,0.60
2023-01-13T16:16:54.292Z,0.60
2023-01-13T16:19:20.448Z,0.50
2023-01-13T16:21:46.594Z,0.50
2023-01-13T16:24:12.701Z,0.68
2023-01-13T16:26:38.881Z,0.50
2023-01-13T16:29:05.064Z,0.60
2023-01-13T16:31:31.177Z,1.08
2023-01-13T16:33:57.308Z,0.70
2023-01-13T16:36:23.447Z,0.50
2023-01-13T16:38:49.579Z,0.70
2023-01-13T16:41:15.699Z,0.50
2023-01-13T16:43:41.841Z,0.70
2023-01-13T16:46:07.997Z,0.93
2023-01-13T16:48:34.153Z,1.42
2023-01-13T16:51:00.259Z,0.70
2023-01-13T16:53:26.396Z,0.98
2023-01-13T16:55:52.553Z,0.77
2023-01-13T16:58:18.669Z,1.52
2023-01-13T17:00:44.855Z,2.17
2023-01-13T17:03:11.027Z,1.85
2023-01-13T17:05:37.162Z,1.80
2023-01-13T17:08:03.271Z,1.70
2023-01-13T17:10:29.422Z,2.03
2023-01-13T17:12:56.107Z,1.83
2023-01-13T17:15:23.191Z,1.65
2023-01-13T17:17:49.391Z,2.00
2023-01-13T17:20:15.527Z,1.77
2023-01-13T17:22:42.429Z,1.75
2023-01-13T17:25:10.003Z,1.83
2023-01-13T17:27:36.103Z,1.50
2023-01-13T17:30:02.242Z,1.92
2023-01-13T17:32:28.362Z,1.50
2023-01-13T17:34:54.468Z,1.15
2023-01-13T17:37:20.610Z,1.42
2023-01-13T17:39:46.777Z,1.17
2023-01-13T17:42:12.933Z,0.98
2023-01-13T17:44:39.049Z,1.20
2023-01-13T17:47:05.176Z,1.25
2023-01-13T17:49:31.275Z,1.02
2023-01-13T17:51:57.406Z,1.40
2023-01-13T17:54:23.527Z,1.13
2023-01-13T17:56:49.650Z,0.90
2023-01-13T17:59:15.869Z,1.10
2023-01-13T18:01:42.093Z,1.40
2023-01-13T18:04:08.322Z,1.40
2023-01-13T18:06:34.478Z,1.40
2023-01-13T18:09:00.583Z,2.00
2023-01-13T18:11:26.720Z,0.90
2023-01-13T18:13:52.816Z,1.55
2023-01-13T18:16:19.056Z,1.40
2023-01-13T18:18:45.313Z,0.90
2023-01-13T18:21:11.454Z,1.17
2023-01-13T18:23:37.606Z,1.20
2023-01-13T18:26:03.713Z,4.68
2023-01-13T18:28:29.835Z,1.45
2023-01-13T18:30:56.028Z,1.10
2023-01-13T18:33:22.177Z,1.17
2023-01-13T18:35:48.317Z,0.75
2023-01-13T18:38:14.441Z,0.63
2023-01-13T18:40:40.551Z,0.68
2023-01-13T18:43:06.672Z,0.90
2023-01-13T18:45:32.865Z,0.60
2023-01-13T18:47:59.000Z,0.60
2023-01-13T18:50:25.122Z,0.70
2023-01-13T18:52:51.309Z,0.65
2023-01-13T18:55:17.420Z,0.85
2023-01-13T18:57:43.552Z,0.60
2023-01-13T19:00:09.709Z,0.70
2023-01-13T19:02:35.857Z,0.43
2023-01-13T19:05:01.991Z,0.63
2023-01-13T19:07:28.120Z,0.60
2023-01-13T19:09:54.265Z,0.80
2023-01-13T19:12:20.385Z,0.75
2023-01-13T19:14:46.533Z,0.88
2023-01-13T19:17:12.628Z,0.43
2023-01-13T19:19:38.753Z,0.50
2023-01-13T19:22:04.861Z,0.70
2023-01-13T19:24:31.000Z,0.50
2023-01-13T19:26:57.132Z,0.60
2023-01-13T19:29:23.308Z,0.50
2023-01-13T19:31:49.432Z,0.50
2023-01-13T19:34:15.554Z,0.50
2023-01-13T19:36:41.653Z,0.40
2023-01-13T19:39:07.775Z,0.30
2023-01-13T19:41:33.947Z,0.38
2023-01-13T19:44:00.091Z,0.75
2023-01-13T19:46:26.314Z,0.82
2023-01-13T19:48:52.459Z,0.80
2023-01-13T19:51:18.602Z,0.40
2023-01-13T19:53:44.750Z,0.60
2023-01-13T19:56:10.882Z,0.30
2023-01-13T19:58:36.981Z,0.50
2023-01-13T20:01:03.144Z,0.50
2023-01-13T20:03:30.912Z,0.90
2023-01-13T20:05:57.110Z,0.55
2023-01-13T20:08:23.212Z,0.38
2023-01-13T20:10:49.407Z,0.50
2023-01-13T20:13:15.522Z,0.47
2023-01-13T20:15:41.670Z,0.52
2023-01-13T20:18:07.810Z,0.65
2023-01-13T20:20:33.982Z,1.10
2023-01-13T20:23:00.083Z,0.50
2023-01-13T20:25:26.263Z,0.70
2023-01-13T20:27:52.483Z,0.65
2023-01-13T20:30:18.609Z,0.38
2023-01-13T20:32:44.748Z,0.40
2023-01-13T20:35:10.891Z,0.30
2023-01-13T20:37:37.002Z,0.57
2023-01-13T20:40:03.158Z,0.60
2023-01-13T20:42:29.286Z,0.30
2023-01-13T20:44:55.444Z,0.45
2023-01-13T20:47:21.573Z,0.30
2023-01-13T20:49:47.699Z,0.32
2023-01-13T20:52:13.822Z,0.40
2023-01-13T20:54:39.951Z,0.55
2023-01-13T20:57:06.070Z,0.50
2023-01-13T20:59:32.198Z,0.68
2023-01-13T21:01:58.318Z,0.40
2023-01-13T21:04:24.438Z,0.40
2023-01-13T21:06:50.566Z,0.38
2023-01-13T21:09:16.693Z,0.50
2023-01-13T21:11:42.797Z,0.40
2023-01-13T21:14:09.057Z,0.50
2023-01-13T21:16:35.235Z,1.05
2023-01-13T21:19:01.377Z,0.40
2023-01-13T21:21:27.490Z,0.50
2023-01-13T21:23:53.604Z,0.43
2023-01-13T21:26:19.711Z,0.38
2023-01-13T21:28:45.828Z,0.60
2023-01-13T21:31:11.949Z,0.43
2023-01-13T21:33:38.082Z,0.30
2023-01-13T21:36:04.217Z,0.50
2023-01-13T21:38:30.417Z,0.52
2023-01-13T21:40:56.562Z,0.73
2023-01-13T21:43:22.749Z,0.50
2023-01-13T21:45:48.944Z,0.45
2023-01-13T21:48:15.115Z,0.28
2023-01-13T21:50:41.245Z,0.22
2023-01-13T21:53:07.386Z,0.35
2023-01-13T21:55:33.514Z,0.50
2023-01-13T21:57:59.671Z,0.35
2023-01-13T22:00:25.784Z,0.30
2023-01-13T22:02:51.919Z,0.30
2023-01-13T22:05:18.106Z,0.40
2023-01-13T22:07:44.223Z,0.38
2023-01-13T22:10:10.392Z,0.40
2023-01-13T22:12:37.604Z,0.43
2023-01-13T22:15:03.739Z,0.45
2023-01-13T22:17:29.870Z,0.25
2023-01-13T22:19:55.995Z,0.30
2023-01-13T22:22:22.125Z,0.40
2023-01-13T22:24:48.267Z,0.40
2023-01-13T22:27:14.373Z,0.30
2023-01-13T22:29:40.537Z,0.30
2023-01-13T22:32:06.652Z,0.40
2023-01-13T22:34:32.800Z,0.40
2023-01-13T22:36:58.930Z,0.30
2023-01-13T22:39:25.047Z,0.45
2023-01-13T22:41:51.185Z,0.20
2023-01-13T22:44:17.299Z,0.20
2023-01-13T22:46:43.413Z,0.85
2023-01-13T22:49:09.516Z,0.52
2023-01-13T22:51:35.677Z,0.82
2023-01-13T22:54:01.780Z,0.40
2023-01-13T22:56:27.923Z,0.30
2023-01-13T22:58:54.023Z,0.30
2023-01-13T23:01:20.175Z,0.40
2023-01-13T23:03:46.447Z,0.28
2023-01-13T23:06:12.604Z,0.30
2023-01-13T23:08:38.704Z,0.40
2023-01-13T23:11:04.850Z,0.40
2023-01-13T23:13:31.004Z,0.30
2023-01-13T23:15:57.127Z,0.30
2023-01-13T23:18:23.237Z,0.30
2023-01-13T23:20:49.383Z,0.77
2023-01-13T23:23:15.488Z,0.40
2023-01-13T23:25:41.596Z,0.38
2023-01-13T23:28:07.717Z,0.40
2023-01-13T23:30:33.884Z,0.20
2023-01-13T23:33:00.052Z,0.40
2023-01-13T23:35:26.185Z,0.30
2023-01-13T23:37:52.296Z,0.40
2023-01-13T23:40:18.410Z,0.35
2023-01-13T23:42:44.551Z,0.57
2023-01-13T23:45:10.682Z,0.40
2023-01-13T23:47:36.815Z,0.47
2023-01-13T23:50:02.933Z,0.30
2023-01-13T23:52:29.063Z,0.20
2023-01-13T23:54:55.174Z,0.40
2023-01-13T23:57:21.306Z,0.52
2023-01-13T23:59:47.410Z,0.40
